createdAt,value
2023-09-08T00:03:58.258Z,52.31
2023-09-08T00:09:05.153Z,51.58
2023-09-08T00:11:31.708Z,51.27
2023-09-08T00:13:58.203Z,51.39
2023-09-08T00:16:24.810Z,51.41
2023-09-08T00:18:51.329Z,51.47
2023-09-08T00:21:17.933Z,51.18
2023-09-08T00:23:44.502Z,51.28
2023-09-08T00:26:11.040Z,51.34
2023-09-08T00:28:37.642Z,51.27
2023-09-08T00:31:04.186Z,51.27
2023-09-08T00:33:34.381Z,51.27
2023-09-08T00:36:01.070Z,51.27
2023-09-08T00:38:27.828Z,51.27
2023-09-08T00:40:57.132Z,51.21
2023-09-08T00:43:23.792Z,51.38
2023-09-08T00:48:30.760Z,51.32
2023-09-08T00:50:57.451Z,51.36
2023-09-08T00:53:24.102Z,51.78
2023-09-08T00:55:50.646Z,51.50
2023-09-08T00:58:17.230Z,51.48
2023-09-08T01:00:43.759Z,51.67
2023-09-08T01:03:14.968Z,51.74
2023-09-08T01:05:43.728Z,51.40
2023-09-08T01:08:10.333Z,51.26
2023-09-08T01:10:36.877Z,51.48
2023-09-08T01:13:03.408Z,51.58
2023-09-08T01:15:30.025Z,51.88
2023-09-08T01:17:56.669Z,51.56
2023-09-08T01:20:23.212Z,51.73
2023-09-08T01:22:49.824Z,51.76
2023-09-08T01:25:16.376Z,51.71
2023-09-08T01:27:42.926Z,52.01
2023-09-08T01:30:09.418Z,51.86
2023-09-08T01:32:37.125Z,51.99
2023-09-08T01:35:03.693Z,52.02
2023-09-08T01:37:30.238Z,51.95
2023-09-08T01:39:56.799Z,51.90
2023-09-08T01:42:23.390Z,52.07
2023-09-08T01:44:50.068Z,52.24
2023-09-08T01:47:16.688Z,52.26
2023-09-08T01:49:43.310Z,52.37
2023-09-08T01:52:09.902Z,52.32
2023-09-08T01:54:36.493Z,52.26
2023-09-08T01:57:03.099Z,52.13
2023-09-08T01:59:29.694Z,52.10
2023-09-08T02:01:56.267Z,52.17
2023-09-08T02:04:22.837Z,52.13
2023-09-08T02:06:49.446Z,52.07
2023-09-08T02:09:15.921Z,52.20
2023-09-08T02:11:42.508Z,52.33
2023-09-08T02:14:09.035Z,52.12
2023-09-08T02:16:35.603Z,52.34
2023-09-08T02:19:02.242Z,52.20
2023-09-08T02:21:28.823Z,52.39
2023-09-08T02:23:55.569Z,52.23
2023-09-08T02:26:22.132Z,52.51
2023-09-08T02:28:48.617Z,52.41
2023-09-08T02:31:15.144Z,52.60
2023-09-08T02:36:22.035Z,52.62
2023-09-08T02:38:48.627Z,53.01
2023-09-08T02:41:15.511Z,52.83
2023-09-08T02:43:41.977Z,52.85
2023-09-08T02:46:08.659Z,52.79
2023-09-08T02:48:38.273Z,52.56
2023-09-08T02:51:06.125Z,52.64
2023-09-08T02:53:32.655Z,52.83
2023-09-08T02:55:59.209Z,52.70
2023-09-08T02:58:25.757Z,52.93
2023-09-08T03:00:52.483Z,52.90
2023-09-08T03:05:59.282Z,53.05
2023-09-08T03:08:25.786Z,52.93
2023-09-08T03:10:52.343Z,53.01
2023-09-08T03:13:18.874Z,53.07
2023-09-08T03:15:48.465Z,53.06
2023-09-08T03:18:16.984Z,52.92
2023-09-08T03:20:43.713Z,52.82
2023-09-08T03:23:10.253Z,53.09
2023-09-08T03:25:36.770Z,52.91
2023-09-08T03:28:04.549Z,53.25
2023-09-08T03:30:31.060Z,53.27
2023-09-08T03:32:57.752Z,53.41
2023-09-08T03:35:24.349Z,53.61
2023-09-08T03:37:50.902Z,53.74
2023-09-08T03:40:22.597Z,53.91
2023-09-08T03:42:49.173Z,53.86
2023-09-08T03:45:15.699Z,53.85
2023-09-08T03:47:42.345Z,53.76
2023-09-08T03:50:29.076Z,53.73
2023-09-08T03:52:55.585Z,54.49
2023-09-08T03:55:22.112Z,54.83
2023-09-08T03:57:49.883Z,55.21
2023-09-08T04:00:16.558Z,54.63
2023-09-08T04:02:43.179Z,54.36
2023-09-08T04:05:09.791Z,54.76
2023-09-08T04:07:36.397Z,54.93
2023-09-08T04:10:03.209Z,55.44
2023-09-08T04:12:29.807Z,55.30
2023-09-08T04:14:57.024Z,55.11
2023-09-08T04:17:23.717Z,55.22
2023-09-08T04:19:50.236Z,55.19
2023-09-08T04:22:16.801Z,55.26
2023-09-08T04:24:43.324Z,55.40
2023-09-08T04:27:09.935Z,55.16
2023-09-08T04:29:42.981Z,55.29
2023-09-08T04:32:10.473Z,55.30
2023-09-08T04:34:37.037Z,55.62
2023-09-08T04:37:04.854Z,55.24
2023-09-08T04:39:31.461Z,54.78
2023-09-08T04:41:58.198Z,55.00
2023-09-08T04:44:24.815Z,54.73
2023-09-08T04:46:51.355Z,54.85
2023-09-08T04:49:17.883Z,54.56
2023-09-08T04:51:44.415Z,54.77
2023-09-08T04:54:10.951Z,54.51
2023-09-08T04:56:37.560Z,54.63
2023-09-08T04:59:04.772Z,54.98
2023-09-08T05:01:31.383Z,54.92
2023-09-08T05:03:58.114Z,54.89
2023-09-08T05:06:24.820Z,54.74
2023-09-08T05:08:51.427Z,54.56
2023-09-08T05:11:19.800Z,54.64
2023-09-08T05:13:46.317Z,54.60
2023-09-08T05:16:12.958Z,54.75
2023-09-08T05:18:39.618Z,54.55
2023-09-08T05:21:06.216Z,54.67
2023-09-08T05:23:40.020Z,54.49
2023-09-08T05:26:06.567Z,54.41
2023-09-08T05:28:34.336Z,54.59
2023-09-08T05:31:02.373Z,54.53
2023-09-08T05:33:28.974Z,54.66
2023-09-08T05:35:56.639Z,54.38
2023-09-08T05:38:23.610Z,54.62
2023-09-08T05:40:52.131Z,54.46
2023-09-08T05:43:18.786Z,54.43
2023-09-08T05:45:45.299Z,54.51
2023-09-08T05:48:14.284Z,54.53
2023-09-08T05:50:40.738Z,54.81
2023-09-08T05:53:07.171Z,54.51
2023-09-08T05:55:33.628Z,54.24
2023-09-08T05:58:00.117Z,54.52
2023-09-08T06:00:26.984Z,54.61
2023-09-08T06:02:53.558Z,54.49
2023-09-08T06:05:20.279Z,54.67
2023-09-08T06:08:01.155Z,54.53
2023-09-08T06:10:33.187Z,54.60
2023-09-08T06:13:00.238Z,54.81
2023-09-08T06:15:26.709Z,54.89
2023-09-08T06:17:53.251Z,54.83
2023-09-08T06:20:19.943Z,54.73
2023-09-08T06:22:55.320Z,55.01
2023-09-08T06:25:21.908Z,54.88
2023-09-08T06:27:48.337Z,55.23
2023-09-08T06:30:14.779Z,55.19
2023-09-08T06:32:41.326Z,55.28
2023-09-08T06:35:07.765Z,54.87
2023-09-08T06:37:34.187Z,54.95
2023-09-08T06:40:00.715Z,54.94
2023-09-08T06:42:27.172Z,55.61
2023-09-08T06:44:53.699Z,55.83
2023-09-08T06:47:20.235Z,55.48
2023-09-08T06:49:46.728Z,55.61
2023-09-08T06:52:13.451Z,55.62
2023-09-08T06:54:40.288Z,55.88
2023-09-08T06:57:06.829Z,55.79
2023-09-08T07:05:07.612Z,55.39
2023-09-08T07:07:37.066Z,54.86
2023-09-08T07:10:03.803Z,54.57
2023-09-08T07:12:32.905Z,54.60
2023-09-08T07:14:59.346Z,54.40
2023-09-08T07:20:16.064Z,54.17
2023-09-08T07:22:49.767Z,54.24
2023-09-08T07:27:56.580Z,54.66
2023-09-08T07:30:23.402Z,54.45
2023-09-08T07:32:53.450Z,54.72
2023-09-08T07:35:19.967Z,55.09
2023-09-08T07:37:46.609Z,55.13
2023-09-08T07:40:13.139Z,55.06
2023-09-08T07:45:20.065Z,55.01
2023-09-08T07:47:46.606Z,55.10
2023-09-08T07:50:13.143Z,55.34
2023-09-08T07:52:44.785Z,55.75
2023-09-08T07:55:11.375Z,55.93
2023-09-08T07:57:37.852Z,55.78
2023-09-08T08:00:04.372Z,55.81
2023-09-08T08:02:30.887Z,55.88
2023-09-08T08:04:59.264Z,55.99
2023-09-08T08:10:06.182Z,56.18
2023-09-08T08:12:32.737Z,56.25
2023-09-08T08:15:01.410Z,56.41
2023-09-08T08:17:27.975Z,56.71
2023-09-08T08:19:54.524Z,57.05
2023-09-08T08:22:21.103Z,56.95
2023-09-08T08:24:47.730Z,56.22
2023-09-08T08:27:15.835Z,56.56
2023-09-08T08:29:42.463Z,56.12
2023-09-08T08:32:08.915Z,56.24
2023-09-08T08:34:35.440Z,55.26
2023-09-08T08:37:01.917Z,55.14
2023-09-08T08:39:28.500Z,55.06
2023-09-08T08:41:55.076Z,54.72
2023-09-08T08:44:21.999Z,54.86
2023-09-08T08:46:49.163Z,54.95
2023-09-08T08:49:16.787Z,55.19
2023-09-08T08:51:43.373Z,55.59
2023-09-08T08:54:12.716Z,55.85
2023-09-08T08:56:39.250Z,55.70
2023-09-08T08:59:05.782Z,55.82
2023-09-08T09:01:32.418Z,55.86
2023-09-08T09:03:59.055Z,56.26
2023-09-08T09:06:25.615Z,55.94
2023-09-08T09:08:52.112Z,55.56
2023-09-08T09:11:18.703Z,56.01
2023-09-08T09:13:45.215Z,56.01
2023-09-08T09:16:11.979Z,56.06
2023-09-08T09:18:38.773Z,55.71
2023-09-08T09:21:05.439Z,56.17
2023-09-08T09:23:31.989Z,56.08
2023-09-08T09:25:58.775Z,56.14
2023-09-08T09:28:25.417Z,56.66
2023-09-08T09:30:52.154Z,56.33
2023-09-08T09:33:19.552Z,56.78
2023-09-08T09:35:46.089Z,57.18
2023-09-08T09:38:12.580Z,57.01
2023-09-08T09:40:39.177Z,57.82
2023-09-08T09:43:05.775Z,57.65
2023-09-08T09:45:32.424Z,58.11
2023-09-08T09:48:01.737Z,57.91
2023-09-08T09:50:28.298Z,57.75
2023-09-08T09:52:54.923Z,57.38
2023-09-08T09:55:21.488Z,57.30
2023-09-08T09:57:48.126Z,58.32
2023-09-08T10:00:14.625Z,59.21
2023-09-08T10:02:41.186Z,58.66
2023-09-08T10:05:07.812Z,58.37
2023-09-08T10:07:34.385Z,59.32
2023-09-08T10:10:00.969Z,59.74
2023-09-08T10:12:27.622Z,60.21
2023-09-08T10:14:54.295Z,60.63
2023-09-08T10:17:20.844Z,60.59
2023-09-08T10:19:48.901Z,59.67
2023-09-08T10:22:18.683Z,60.59
2023-09-08T10:24:45.263Z,60.11
2023-09-08T10:27:11.928Z,60.02
2023-09-08T10:29:38.426Z,61.18
2023-09-08T10:32:05.085Z,61.19
2023-09-08T10:34:33.038Z,60.08
2023-09-08T10:36:59.718Z,59.60
2023-09-08T10:39:26.267Z,61.07
2023-09-08T10:41:52.843Z,60.74
2023-09-08T10:44:19.525Z,62.30
2023-09-08T10:46:46.205Z,62.19
2023-09-08T10:49:14.948Z,62.72
2023-09-08T10:51:41.466Z,62.10
2023-09-08T10:54:15.243Z,63.05
2023-09-08T10:56:42.267Z,63.52
2023-09-08T10:59:11.431Z,63.58
2023-09-08T11:01:37.955Z,63.03
2023-09-08T11:04:04.770Z,64.26
2023-09-08T11:09:13.913Z,62.70
2023-09-08T11:11:40.361Z,63.57
2023-09-08T11:14:09.553Z,66.93
2023-09-08T11:16:36.127Z,67.65
2023-09-08T11:19:02.645Z,67.29
2023-09-08T11:21:29.153Z,66.30
2023-09-08T11:23:55.800Z,66.30
2023-09-08T11:26:22.974Z,65.92
2023-09-08T11:28:49.581Z,65.28
2023-09-08T11:31:16.188Z,66.23
2023-09-08T11:33:47.588Z,65.17
2023-09-08T11:36:14.154Z,67.58
2023-09-08T11:38:40.709Z,66.56
2023-09-08T11:41:07.183Z,66.37
2023-09-08T11:43:35.988Z,64.65
2023-09-08T11:46:02.714Z,64.21
2023-09-08T11:48:29.318Z,62.08
2023-09-08T11:50:55.873Z,63.55
2023-09-08T11:53:22.594Z,63.71
2023-09-08T11:58:32.446Z,62.21
2023-09-08T12:01:03.358Z,62.56
2023-09-08T12:03:29.967Z,60.37
2023-09-08T12:05:56.589Z,54.54
2023-09-08T12:08:23.369Z,55.63
2023-09-08T12:10:54.829Z,57.52
2023-09-08T12:13:21.360Z,58.57
2023-09-08T12:15:47.953Z,55.52
2023-09-08T12:18:14.526Z,53.85
2023-09-08T12:20:41.206Z,50.87
2023-09-08T12:23:07.836Z,52.12
2023-09-08T12:25:36.133Z,51.49
2023-09-08T12:28:04.192Z,51.68
2023-09-08T12:30:30.812Z,49.72
2023-09-08T12:32:59.758Z,50.47
2023-09-08T12:35:26.575Z,50.75
2023-09-08T12:37:53.025Z,51.62
2023-09-08T12:40:25.579Z,51.25
2023-09-08T12:42:54.013Z,48.79
2023-09-08T12:45:24.840Z,51.20
2023-09-08T12:47:51.280Z,52.01
2023-09-08T12:50:17.891Z,50.10
2023-09-08T12:52:47.184Z,51.54
2023-09-08T12:55:13.687Z,51.75
2023-09-08T12:57:42.151Z,52.47
2023-09-08T13:02:49.042Z,51.53
2023-09-08T13:08:13.970Z,52.34
2023-09-08T13:10:43.584Z,53.24
2023-09-08T13:13:10.234Z,51.64
2023-09-08T13:15:36.901Z,51.98
2023-09-08T13:18:03.521Z,52.39
2023-09-08T13:20:30.126Z,53.53
2023-09-08T13:22:56.716Z,54.23
2023-09-08T13:25:25.289Z,54.81
2023-09-08T13:27:52.240Z,54.29
2023-09-08T13:33:09.424Z,50.63
2023-09-08T13:35:36.900Z,52.31
2023-09-08T13:38:03.421Z,54.46
2023-09-08T13:40:29.966Z,53.88
2023-09-08T13:42:56.516Z,51.16
2023-09-08T13:45:23.106Z,54.88
2023-09-08T13:47:57.330Z,55.34
2023-09-08T13:50:24.485Z,56.57
2023-09-08T13:52:55.678Z,57.59
2023-09-08T13:55:34.753Z,56.59
2023-09-08T13:58:04.165Z,56.24
2023-09-08T14:00:33.122Z,57.49
2023-09-08T14:03:01.476Z,56.97
2023-09-08T14:05:36.678Z,57.31
2023-09-08T14:08:08.480Z,57.12
2023-09-08T14:10:52.016Z,57.37
2023-09-08T14:13:20.852Z,57.29
2023-09-08T14:15:47.303Z,57.66
2023-09-08T14:18:13.778Z,57.82
2023-09-08T14:23:20.669Z,57.39
2023-09-08T14:25:48.390Z,55.17
2023-09-08T14:28:14.824Z,55.73
2023-09-08T14:30:47.486Z,57.50
2023-09-08T14:33:16.099Z,59.95
2023-09-08T14:35:56.141Z,57.97
2023-09-08T14:38:22.652Z,58.37
2023-09-08T14:40:50.031Z,58.87
2023-09-08T14:43:16.639Z,57.99
2023-09-08T14:45:43.177Z,55.81
2023-09-08T14:48:09.820Z,55.57
2023-09-08T14:50:36.447Z,56.90
2023-09-08T14:53:03.083Z,58.58
2023-09-08T14:55:29.760Z,59.00
2023-09-08T14:57:56.283Z,58.39
2023-09-08T15:00:22.875Z,60.19
2023-09-08T15:02:49.728Z,59.33
2023-09-08T15:05:16.294Z,58.33
2023-09-08T15:07:45.883Z,58.30
2023-09-08T15:10:13.420Z,56.01
2023-09-08T15:12:40.000Z,57.26
2023-09-08T15:15:06.607Z,56.81
2023-09-08T15:17:33.234Z,57.74
2023-09-08T15:20:02.522Z,58.39
2023-09-08T15:22:29.158Z,59.99
2023-09-08T15:24:55.721Z,59.59
2023-09-08T15:27:22.434Z,59.78
2023-09-08T15:29:48.980Z,59.35
2023-09-08T15:32:15.614Z,59.22
2023-09-08T15:34:44.777Z,58.97
2023-09-08T15:37:11.349Z,58.39
2023-09-08T15:39:37.946Z,59.08
2023-09-08T15:42:04.507Z,58.03
2023-09-08T15:44:31.029Z,58.77
2023-09-08T15:49:37.872Z,59.55
2023-09-08T15:52:15.682Z,59.55
2023-09-08T15:54:43.261Z,57.87
2023-09-08T15:57:09.906Z,57.55
2023-09-08T15:59:36.443Z,58.10
2023-09-08T16:02:03.049Z,58.78
2023-09-08T16:04:29.788Z,59.18
2023-09-08T16:06:56.583Z,59.45
2023-09-08T16:09:23.131Z,60.00
2023-09-08T16:11:49.665Z,59.21
2023-09-08T16:14:16.267Z,59.40
2023-09-08T16:16:42.982Z,57.61
2023-09-08T16:19:15.163Z,56.31
2023-09-08T16:21:41.702Z,52.82
2023-09-08T16:24:08.395Z,53.66
2023-09-08T16:26:35.066Z,53.10
2023-09-08T16:29:01.667Z,54.25
2023-09-08T16:31:28.226Z,49.68
2023-09-08T16:33:54.800Z,47.48
2023-09-08T16:36:21.304Z,47.90
2023-09-08T16:38:57.068Z,48.27
2023-09-08T16:41:23.588Z,46.99
2023-09-08T16:43:50.141Z,46.98
2023-09-08T16:46:16.640Z,47.53
2023-09-08T16:48:43.407Z,45.99
2023-09-08T16:51:12.572Z,45.07
2023-09-08T16:53:39.197Z,45.74
2023-09-08T16:56:05.769Z,45.79
2023-09-08T16:58:32.326Z,46.30
2023-09-08T17:00:58.872Z,46.22
2023-09-08T17:03:25.475Z,45.61
2023-09-08T17:05:53.127Z,45.11
2023-09-08T17:08:19.609Z,44.82
2023-09-08T17:10:47.679Z,43.92
2023-09-08T17:13:14.216Z,47.46
2023-09-08T17:15:40.962Z,48.04
2023-09-08T17:18:07.873Z,47.46
2023-09-08T17:20:34.593Z,49.25
2023-09-08T17:23:01.243Z,48.07
2023-09-08T17:25:27.777Z,47.52
2023-09-08T17:28:06.904Z,47.13
2023-09-08T17:30:33.709Z,46.57
2023-09-08T17:33:01.520Z,46.90
2023-09-08T17:35:28.052Z,47.41
2023-09-08T17:37:56.615Z,47.42
2023-09-08T17:40:23.143Z,48.03
2023-09-08T17:42:49.735Z,47.41
2023-09-08T17:45:16.258Z,47.74
2023-09-08T17:47:45.231Z,48.16
2023-09-08T17:50:11.889Z,48.05
2023-09-08T17:52:38.385Z,48.02
2023-09-08T17:55:04.900Z,48.39
2023-09-08T17:57:34.520Z,48.13
2023-09-08T18:00:01.090Z,48.47
2023-09-08T18:02:27.842Z,48.81
2023-09-08T18:04:54.489Z,48.84
2023-09-08T18:07:21.152Z,47.99
2023-09-08T18:09:47.879Z,48.13
2023-09-08T18:12:14.457Z,48.31
2023-09-08T18:14:40.982Z,48.17
2023-09-08T18:17:07.579Z,47.22
2023-09-08T18:19:34.196Z,47.54
2023-09-08T18:22:00.827Z,46.84
2023-09-08T18:24:27.315Z,46.37
2023-09-08T18:26:53.855Z,46.75
2023-09-08T18:29:20.416Z,46.86
2023-09-08T18:32:00.589Z,47.88
2023-09-08T18:34:27.081Z,48.07
2023-09-08T18:37:01.531Z,48.37
2023-09-08T18:39:28.120Z,47.59
2023-09-08T18:41:54.652Z,47.21
2023-09-08T18:44:21.176Z,47.35
2023-09-08T18:46:47.919Z,47.58
2023-09-08T18:49:14.406Z,47.71
2023-09-08T18:51:41.948Z,46.86
2023-09-08T18:54:08.412Z,45.93
2023-09-08T18:56:34.908Z,46.16
2023-09-08T18:59:02.083Z,45.41
2023-09-08T19:01:29.277Z,46.21
2023-09-08T19:03:55.795Z,48.10
2023-09-08T19:06:22.624Z,47.68
2023-09-08T19:08:49.288Z,47.58
2023-09-08T19:11:15.809Z,46.49
2023-09-08T19:13:42.474Z,46.32
2023-09-08T19:16:09.041Z,48.18
2023-09-08T19:18:35.590Z,49.56
2023-09-08T19:21:02.087Z,49.03
2023-09-08T19:23:28.595Z,47.49
2023-09-08T19:25:56.935Z,47.52
2023-09-08T19:28:23.352Z,46.26
2023-09-08T19:30:49.983Z,46.50
2023-09-08T19:33:17.752Z,45.89
2023-09-08T19:35:46.292Z,46.11
2023-09-08T19:38:12.782Z,45.87
2023-09-08T19:40:39.274Z,44.73
2023-09-08T19:43:05.765Z,45.13
2023-09-08T19:45:32.185Z,44.51
2023-09-08T19:47:58.699Z,45.01
2023-09-08T19:50:25.191Z,44.64
2023-09-08T19:52:51.753Z,44.19
2023-09-08T19:55:29.359Z,44.92
2023-09-08T19:57:55.889Z,44.98
2023-09-08T20:00:22.422Z,44.55
2023-09-08T20:02:51.629Z,44.04
2023-09-08T20:05:20.127Z,44.15
2023-09-08T20:07:46.584Z,43.97
2023-09-08T20:10:13.103Z,44.10
2023-09-08T20:12:39.653Z,44.62
2023-09-08T20:15:06.167Z,44.42
2023-09-08T20:17:32.757Z,44.37
2023-09-08T20:19:59.276Z,44.68
2023-09-08T20:22:25.736Z,44.60
2023-09-08T20:24:52.184Z,45.30
2023-09-08T20:27:18.822Z,45.26
2023-09-08T20:32:27.038Z,45.36
2023-09-08T20:34:53.602Z,45.27
2023-09-08T20:37:20.978Z,45.06
2023-09-08T20:39:47.530Z,45.70
2023-09-08T20:42:17.157Z,45.63
2023-09-08T20:44:43.709Z,46.07
2023-09-08T20:47:10.334Z,46.46
2023-09-08T20:49:39.625Z,46.75
2023-09-08T20:52:06.167Z,46.75
2023-09-08T20:54:32.714Z,46.73
2023-09-08T20:56:59.182Z,45.29
2023-09-08T20:59:28.289Z,44.66
2023-09-08T21:01:56.205Z,45.60
2023-09-08T21:04:24.267Z,46.30
2023-09-08T21:06:52.763Z,47.52
2023-09-08T21:09:27.560Z,48.26
2023-09-08T21:11:54.109Z,48.11
2023-09-08T21:14:22.766Z,47.78
2023-09-08T21:16:49.430Z,49.63
2023-09-08T21:19:15.980Z,50.22
2023-09-08T21:21:42.538Z,49.30
2023-09-08T21:24:09.077Z,49.06
2023-09-08T21:26:43.492Z,49.30
2023-09-08T21:29:10.130Z,49.38
2023-09-08T21:31:36.742Z,47.67
2023-09-08T21:34:04.292Z,45.15
2023-09-08T21:36:30.860Z,45.51
2023-09-08T21:38:58.635Z,46.43
2023-09-08T21:41:32.842Z,46.59
2023-09-08T21:43:59.459Z,46.06
2023-09-08T21:46:27.233Z,45.60
2023-09-08T21:48:53.789Z,45.12
2023-09-08T21:51:20.358Z,45.44
2023-09-08T21:53:46.995Z,44.90
2023-09-08T21:56:13.461Z,44.56
2023-09-08T21:58:45.009Z,45.09
2023-09-08T22:01:18.789Z,44.64
2023-09-08T22:03:46.044Z,44.81
2023-09-08T22:09:03.480Z,45.32
2023-09-08T22:11:30.109Z,45.03
2023-09-08T22:13:56.724Z,45.39
2023-09-08T22:16:23.381Z,44.87
2023-09-08T22:18:49.990Z,44.51
2023-09-08T22:21:18.649Z,44.37
2023-09-08T22:23:45.218Z,44.90
2023-09-08T22:26:11.749Z,45.45
2023-09-08T22:28:40.794Z,45.14
2023-09-08T22:31:07.404Z,45.15
2023-09-08T22:33:34.307Z,45.09
2023-09-08T22:36:01.101Z,45.16
2023-09-08T22:38:27.691Z,45.15
2023-09-08T22:40:54.214Z,45.28
2023-09-08T22:43:20.696Z,47.29
2023-09-08T22:45:47.435Z,46.99
2023-09-08T22:48:14.071Z,47.53
2023-09-08T22:53:21.006Z,46.42
2023-09-08T22:55:47.612Z,45.52
2023-09-08T22:58:14.290Z,46.00
2023-09-08T23:00:40.952Z,46.50
2023-09-08T23:03:07.649Z,46.86
2023-09-08T23:05:34.386Z,47.05
2023-09-08T23:08:00.882Z,47.31
2023-09-08T23:10:30.882Z,49.36
2023-09-08T23:12:57.309Z,49.34
2023-09-08T23:15:23.780Z,48.63
2023-09-08T23:17:50.394Z,48.24
2023-09-08T23:20:17.068Z,48.07
2023-09-08T23:22:43.617Z,47.45
2023-09-08T23:25:10.169Z,47.13
2023-09-08T23:27:36.741Z,46.70
2023-09-08T23:30:03.255Z,47.09
2023-09-08T23:32:29.832Z,48.25
2023-09-08T23:34:56.429Z,49.19
2023-09-08T23:37:22.840Z,47.92
2023-09-08T23:39:51.418Z,45.76
2023-09-08T23:42:33.254Z,46.49
2023-09-08T23:44:59.686Z,45.94
2023-09-08T23:47:26.361Z,45.75
2023-09-08T23:49:52.970Z,45.46
2023-09-08T23:52:19.397Z,44.98
2023-09-08T23:54:45.858Z,44.81
2023-09-08T23:57:12.425Z,44.93
2023-09-08T23:59:38.924Z,45.17
